createdAt,value
2023-04-08T00:00:11.285Z,1.65
2023-04-08T00:02:59.394Z,1.45
2023-04-08T00:05:47.658Z,1.52
2023-04-08T00:08:35.664Z,1.77
2023-04-08T00:11:23.730Z,1.90
2023-04-08T00:14:11.741Z,2.55
2023-04-08T00:17:01.374Z,1.63
2023-04-08T00:19:49.553Z,1.77
2023-04-08T00:22:37.559Z,1.60
2023-04-08T00:25:25.860Z,1.60
2023-04-08T00:28:15.374Z,2.00
2023-04-08T00:31:03.376Z,1.33
2023-04-08T00:33:52.734Z,1.90
2023-04-08T00:36:40.910Z,1.40
2023-04-08T00:39:28.941Z,1.83
2023-04-08T00:42:17.112Z,1.70
2023-04-08T00:45:05.860Z,1.75
2023-04-08T00:47:53.932Z,2.20
2023-04-08T00:50:44.487Z,1.52
2023-04-08T00:53:33.178Z,1.80
2023-04-08T00:56:21.586Z,2.53
2023-04-08T00:59:09.575Z,2.42
2023-04-08T01:02:15.119Z,2.85
2023-04-08T01:05:06.852Z,2.35
2023-04-08T01:07:56.382Z,2.10
2023-04-08T01:10:49.110Z,1.70
2023-04-08T01:13:40.565Z,2.10
2023-04-08T01:16:29.232Z,2.47
2023-04-08T01:19:26.928Z,2.28
2023-04-08T01:22:26.687Z,2.65
2023-04-08T01:25:20.909Z,2.20
2023-04-08T01:28:13.088Z,3.20
2023-04-08T01:31:03.059Z,3.60
2023-04-08T01:33:53.035Z,3.30
2023-04-08T01:36:42.763Z,2.40
2023-04-08T01:39:31.358Z,3.42
2023-04-08T01:42:19.524Z,2.50
2023-04-08T01:45:11.212Z,3.67
2023-04-08T01:48:01.066Z,2.30
2023-04-08T01:50:51.294Z,3.40
2023-04-08T01:53:39.388Z,2.88
2023-04-08T01:56:30.006Z,2.85
2023-04-08T01:59:19.852Z,3.17
2023-04-08T02:02:10.907Z,2.38
2023-04-08T02:04:59.633Z,3.28
2023-04-08T02:07:48.467Z,4.97
2023-04-08T02:10:36.482Z,3.45
2023-04-08T02:13:24.516Z,3.30
2023-04-08T02:16:17.227Z,4.38
2023-04-08T02:19:13.146Z,3.58
2023-04-08T02:22:06.547Z,4.00
2023-04-08T02:24:54.752Z,3.25
2023-04-08T02:27:44.554Z,4.00
2023-04-08T02:30:34.511Z,3.40
2023-04-08T02:33:23.954Z,3.38
2023-04-08T02:36:15.487Z,5.18
2023-04-08T02:39:03.879Z,3.15
2023-04-08T02:41:51.923Z,4.03
2023-04-08T02:44:39.995Z,3.15
2023-04-08T02:47:28.109Z,4.32
2023-04-08T02:50:16.394Z,4.05
2023-04-08T02:53:05.919Z,5.03
2023-04-08T02:55:53.985Z,4.40
2023-04-08T02:58:42.043Z,3.30
2023-04-08T03:01:30.522Z,4.25
2023-04-08T03:04:18.803Z,4.72
2023-04-08T03:07:08.657Z,3.97
2023-04-08T03:09:58.239Z,3.95
2023-04-08T03:12:46.258Z,5.00
2023-04-08T03:15:34.278Z,5.20
2023-04-08T03:18:22.323Z,4.78
2023-04-08T03:21:10.664Z,4.15
2023-04-08T03:23:58.672Z,3.10
2023-04-08T03:26:48.046Z,4.38
2023-04-08T03:29:36.081Z,3.65
2023-04-08T03:32:24.391Z,5.10
2023-04-08T03:35:12.442Z,4.13
2023-04-08T03:38:00.558Z,4.07
2023-04-08T03:40:48.628Z,4.43
2023-04-08T03:43:38.108Z,5.93
2023-04-08T03:46:26.356Z,5.40
2023-04-08T03:49:14.410Z,4.57
2023-04-08T03:52:02.426Z,4.97
2023-04-08T03:54:50.466Z,7.03
2023-04-08T03:57:38.492Z,4.80
2023-04-08T04:00:28.054Z,6.50
2023-04-08T04:03:16.216Z,5.50
2023-04-08T04:06:04.610Z,5.53
2023-04-08T04:08:54.505Z,5.95
2023-04-08T04:11:42.542Z,4.20
2023-04-08T04:14:30.555Z,5.57
2023-04-08T04:17:19.973Z,4.50
2023-04-08T04:20:09.091Z,5.05
2023-04-08T04:22:57.195Z,5.60
2023-04-08T04:25:45.248Z,6.28
2023-04-08T04:28:33.278Z,5.32
2023-04-08T04:31:22.371Z,5.90
2023-04-08T04:34:11.752Z,6.78
2023-04-08T04:36:59.784Z,4.95
2023-04-08T04:39:47.809Z,6.40
2023-04-08T04:42:35.990Z,6.68
2023-04-08T04:45:24.012Z,7.78
2023-04-08T04:48:12.055Z,6.60
2023-04-08T04:51:03.138Z,6.10
2023-04-08T04:53:51.656Z,5.03
2023-04-08T04:56:39.650Z,6.47
2023-04-08T04:59:27.663Z,5.10
2023-04-08T05:02:15.807Z,6.60
2023-04-08T05:05:04.132Z,6.85
2023-04-08T05:07:53.835Z,6.82
2023-04-08T05:10:42.277Z,7.50
2023-04-08T05:13:30.458Z,6.20
2023-04-08T05:16:18.571Z,6.82
2023-04-08T05:19:06.637Z,5.53
2023-04-08T05:21:54.645Z,6.20
2023-04-08T05:24:43.996Z,7.03
2023-04-08T05:27:31.993Z,7.78
2023-04-08T05:30:20.911Z,5.20
2023-04-08T05:33:08.981Z,6.95
2023-04-08T05:35:57.035Z,7.00
2023-04-08T05:38:45.472Z,7.60
2023-04-08T05:41:34.796Z,6.05
2023-04-08T05:44:22.855Z,5.93
2023-04-08T05:47:11.209Z,6.38
2023-04-08T05:49:59.370Z,7.28
2023-04-08T05:52:47.664Z,7.10
2023-04-08T05:55:35.860Z,6.80
2023-04-08T05:58:25.334Z,6.75
2023-04-08T06:01:13.513Z,6.78
2023-04-08T06:04:01.816Z,5.32
2023-04-08T06:06:50.035Z,6.40
2023-04-08T06:09:38.225Z,9.10
2023-04-08T06:12:26.341Z,8.32
2023-04-08T06:15:16.680Z,9.50
2023-04-08T06:18:04.822Z,7.20
2023-04-08T06:20:52.870Z,8.18
2023-04-08T06:23:41.223Z,9.68
2023-04-08T06:26:29.249Z,9.27
2023-04-08T06:29:17.285Z,7.50
2023-04-08T06:32:07.192Z,6.90
2023-04-08T06:34:55.268Z,7.35
2023-04-08T06:37:43.294Z,7.65
2023-04-08T06:40:31.417Z,7.07
2023-04-08T06:43:19.424Z,6.80
2023-04-08T06:46:07.646Z,6.38
2023-04-08T06:48:57.016Z,7.35
2023-04-08T06:51:45.042Z,6.57
2023-04-08T06:54:33.060Z,8.50
2023-04-08T06:57:21.062Z,6.28
2023-04-08T07:00:10.282Z,7.88
2023-04-08T07:02:58.369Z,7.13
2023-04-08T07:05:48.698Z,7.20
2023-04-08T07:08:37.487Z,7.13
2023-04-08T07:11:25.717Z,8.40
2023-04-08T07:14:14.079Z,7.32
2023-04-08T07:17:02.323Z,7.45
2023-04-08T07:19:50.440Z,7.15
2023-04-08T07:22:39.832Z,7.35
2023-04-08T07:25:27.837Z,8.85
2023-04-08T07:28:16.192Z,10.63
2023-04-08T07:31:14.914Z,7.72
2023-04-08T07:34:03.098Z,8.20
2023-04-08T07:36:51.314Z,9.90
2023-04-08T07:39:40.837Z,8.85
2023-04-08T07:42:28.996Z,6.25
2023-04-08T07:45:17.259Z,8.27
2023-04-08T07:48:05.686Z,9.23
2023-04-08T07:51:08.266Z,9.30
2023-04-08T07:53:58.537Z,8.07
2023-04-08T07:56:47.925Z,8.57
2023-04-08T07:59:36.161Z,8.23
2023-04-08T08:02:25.418Z,7.57
2023-04-08T08:05:13.536Z,9.13
2023-04-08T08:08:01.581Z,7.85
2023-04-08T08:10:49.582Z,6.80
2023-04-08T08:13:38.989Z,8.50
2023-04-08T08:16:29.680Z,6.95
2023-04-08T08:19:17.779Z,8.35
2023-04-08T08:22:05.795Z,7.93
2023-04-08T08:24:57.632Z,9.32
2023-04-08T08:27:45.739Z,7.47
2023-04-08T08:30:35.232Z,8.50
2023-04-08T08:33:23.331Z,7.65
2023-04-08T08:36:11.444Z,8.82
2023-04-08T08:38:59.555Z,6.43
2023-04-08T08:41:47.660Z,9.75
2023-04-08T08:44:36.055Z,8.23
2023-04-08T08:47:26.193Z,10.25
2023-04-08T08:50:14.274Z,7.15
2023-04-08T08:53:02.954Z,9.32
2023-04-08T08:56:16.658Z,8.57
2023-04-08T08:58:59.017Z,7.72
2023-04-08T09:01:47.156Z,6.30
2023-04-08T09:04:37.030Z,7.97
2023-04-08T09:07:26.607Z,6.95
2023-04-08T09:10:14.735Z,9.10
2023-04-08T09:13:02.994Z,6.70
2023-04-08T09:16:05.062Z,10.60
2023-04-08T09:18:53.207Z,8.35
2023-04-08T09:21:43.541Z,10.18
2023-04-08T09:24:32.369Z,7.78
2023-04-08T09:27:34.952Z,7.43
2023-04-08T09:30:24.988Z,9.20
2023-04-08T09:33:13.002Z,6.97
2023-04-08T09:36:01.128Z,8.43
2023-04-08T09:38:50.583Z,7.90
2023-04-08T09:41:40.621Z,7.75
2023-04-08T09:44:30.424Z,8.82
2023-04-08T09:47:22.189Z,8.85
2023-04-08T09:50:10.798Z,9.00
2023-04-08T09:53:03.245Z,6.60
2023-04-08T09:55:57.039Z,6.05
2023-04-08T09:58:52.658Z,7.50
2023-04-08T10:01:46.217Z,7.68
2023-04-08T10:04:39.594Z,7.47
2023-04-08T10:07:27.763Z,7.55
2023-04-08T10:10:16.084Z,11.30
2023-04-08T10:13:06.226Z,9.20
2023-04-08T10:16:22.937Z,6.60
2023-04-08T10:19:39.548Z,8.38
2023-04-08T10:22:48.623Z,8.52
2023-04-08T10:25:37.447Z,8.60
2023-04-08T10:28:26.478Z,7.82
2023-04-08T10:31:24.638Z,8.38
2023-04-08T10:34:19.015Z,7.28
2023-04-08T10:37:09.022Z,6.97
2023-04-08T10:39:57.069Z,8.55
2023-04-08T10:42:45.094Z,9.00
2023-04-08T10:45:33.124Z,8.65
2023-04-08T10:48:24.630Z,9.32
2023-04-08T10:51:12.796Z,9.00
2023-04-08T10:54:07.232Z,7.10
2023-04-08T10:56:55.229Z,8.77
2023-04-08T10:59:43.287Z,7.55
2023-04-08T11:02:34.544Z,8.70
2023-04-08T11:05:24.902Z,9.75
2023-04-08T11:08:12.958Z,7.15
2023-04-08T11:11:02.273Z,9.07
2023-04-08T11:13:53.731Z,10.07
2023-04-08T11:16:42.432Z,8.07
2023-04-08T11:19:30.561Z,9.88
2023-04-08T11:22:19.974Z,7.80
2023-04-08T11:25:10.287Z,9.10
2023-04-08T11:27:58.507Z,8.00
2023-04-08T11:30:48.127Z,8.48
2023-04-08T11:33:36.247Z,9.40
2023-04-08T11:36:24.332Z,7.57
2023-04-08T11:39:13.735Z,7.68
2023-04-08T11:42:01.789Z,6.78
2023-04-08T11:44:49.870Z,6.97
2023-04-08T11:47:38.036Z,8.68
2023-04-08T11:50:29.830Z,7.72
2023-04-08T11:53:19.575Z,8.73
2023-04-08T11:56:18.992Z,10.55
2023-04-08T11:59:07.045Z,8.65
2023-04-08T12:01:55.396Z,7.82
2023-04-08T12:04:43.547Z,7.82
2023-04-08T12:07:31.574Z,7.05
2023-04-08T12:10:19.732Z,8.13
2023-04-08T12:13:09.068Z,8.55
2023-04-08T12:15:57.108Z,7.75
2023-04-08T12:18:45.218Z,6.32
2023-04-08T12:21:33.951Z,7.85
2023-04-08T12:24:22.063Z,9.23
2023-04-08T12:27:10.101Z,8.60
2023-04-08T12:29:59.428Z,8.30
2023-04-08T12:32:47.953Z,10.48
2023-04-08T12:35:37.098Z,7.40
2023-04-08T12:38:25.542Z,7.85
2023-04-08T12:41:13.568Z,6.80
2023-04-08T12:44:01.641Z,7.22
2023-04-08T12:46:51.234Z,7.28
2023-04-08T12:52:30.166Z,8.20
2023-04-08T12:55:18.281Z,7.97
2023-04-08T12:58:06.651Z,7.15
2023-04-08T13:00:54.700Z,7.63
2023-04-08T13:03:46.372Z,6.70
2023-04-08T13:06:35.159Z,7.70
2023-04-08T13:09:23.329Z,6.45
2023-04-08T13:12:12.155Z,8.75
2023-04-08T13:15:01.349Z,8.07
2023-04-08T13:17:49.649Z,6.80
2023-04-08T13:20:39.017Z,7.25
2023-04-08T13:23:27.496Z,7.28
2023-04-08T13:26:15.528Z,7.35
2023-04-08T13:29:10.601Z,7.00
2023-04-08T13:31:58.719Z,5.93
2023-04-08T13:34:46.748Z,6.78
2023-04-08T13:37:34.780Z,6.68
2023-04-08T13:40:23.130Z,6.70
2023-04-08T13:43:11.575Z,7.03
2023-04-08T13:46:01.413Z,5.90
2023-04-08T13:48:50.354Z,7.13
2023-04-08T13:51:38.916Z,6.50
2023-04-08T13:54:27.444Z,8.20
2023-04-08T13:57:16.058Z,5.55
2023-04-08T14:00:05.121Z,5.70
2023-04-08T14:02:54.952Z,6.30
2023-04-08T14:05:43.574Z,5.85
2023-04-08T14:08:32.065Z,6.55
2023-04-08T14:11:21.327Z,7.38
2023-04-08T14:14:09.888Z,6.43
2023-04-08T14:16:58.263Z,6.80
2023-04-08T14:19:48.034Z,7.88
2023-04-08T14:22:36.529Z,5.35
2023-04-08T14:25:25.280Z,5.75
2023-04-08T14:28:13.769Z,5.57
2023-04-08T14:31:04.100Z,5.38
2023-04-08T14:33:52.443Z,6.28
2023-04-08T14:36:42.165Z,6.28
2023-04-08T14:39:30.591Z,5.82
2023-04-08T14:42:18.923Z,6.07
2023-04-08T14:45:08.309Z,6.13
2023-04-08T14:47:56.881Z,5.80
2023-04-08T14:50:45.425Z,6.13
2023-04-08T14:53:35.461Z,6.93
2023-04-08T14:56:23.985Z,5.50
2023-04-08T14:59:12.333Z,5.82
2023-04-08T15:02:00.977Z,6.13
2023-04-08T15:04:49.291Z,6.45
2023-04-08T15:07:37.703Z,5.93
2023-04-08T15:10:28.060Z,5.57
2023-04-08T15:13:16.493Z,5.47
2023-04-08T15:16:04.946Z,5.97
2023-04-08T15:18:53.460Z,5.95
2023-04-08T15:21:42.076Z,6.28
2023-04-08T15:24:30.402Z,6.03
2023-04-08T15:27:20.532Z,6.07
2023-04-08T15:30:12.317Z,5.28
2023-04-08T15:33:01.257Z,6.57
2023-04-08T15:35:49.729Z,6.47
2023-04-08T15:38:38.429Z,5.95
2023-04-08T15:41:27.307Z,5.78
2023-04-08T15:44:17.439Z,5.25
2023-04-08T15:47:05.779Z,6.22
2023-04-08T15:49:55.833Z,5.13
2023-04-08T15:52:44.642Z,6.10
2023-04-08T15:55:38.196Z,6.22
2023-04-08T15:58:26.953Z,5.57
2023-04-08T16:01:18.797Z,5.28
2023-04-08T16:04:08.142Z,5.57
2023-04-08T16:06:56.799Z,5.35
2023-04-08T16:09:45.090Z,5.60
2023-04-08T16:12:33.603Z,4.88
2023-04-08T16:15:22.053Z,5.68
2023-04-08T16:18:12.073Z,4.93
2023-04-08T16:21:00.591Z,5.00
2023-04-08T16:23:49.159Z,5.30
2023-04-08T16:26:37.801Z,5.30
2023-04-08T16:29:27.271Z,5.25
2023-04-08T16:32:15.825Z,4.88
2023-04-08T16:35:06.099Z,5.10
2023-04-08T16:37:54.568Z,5.28
2023-04-08T16:40:42.815Z,5.90
2023-04-08T16:43:31.206Z,4.90
2023-04-08T16:46:19.796Z,6.50
2023-04-08T16:49:08.028Z,4.95
2023-04-08T16:51:58.406Z,4.93
2023-04-08T16:54:47.632Z,5.63
2023-04-08T16:57:35.970Z,4.97
2023-04-08T17:00:24.775Z,4.72
2023-04-08T17:03:13.480Z,5.53
2023-04-08T17:06:07.476Z,5.15
2023-04-08T17:08:57.203Z,4.70
2023-04-08T17:11:47.540Z,5.47
2023-04-08T17:14:36.130Z,5.00
2023-04-08T17:17:24.739Z,5.25
2023-04-08T17:20:13.649Z,4.50
2023-04-08T17:23:02.265Z,5.32
2023-04-08T17:25:52.323Z,4.65
2023-04-08T17:28:40.809Z,5.00
2023-04-08T17:31:29.376Z,4.97
2023-04-08T17:34:18.113Z,4.90
2023-04-08T17:37:06.727Z,5.40
2023-04-08T17:39:55.241Z,5.22
2023-04-08T17:42:45.180Z,5.18
2023-04-08T17:45:33.622Z,5.43
2023-04-08T17:48:21.965Z,5.93
2023-04-08T17:51:10.820Z,5.60
2023-04-08T17:53:59.012Z,6.15
2023-04-08T17:56:49.478Z,5.97
2023-04-08T17:59:39.648Z,5.95
2023-04-08T18:02:29.081Z,6.15
2023-04-08T18:05:17.652Z,5.95
2023-04-08T18:08:06.262Z,5.63
2023-04-08T18:10:55.022Z,6.03
2023-04-08T18:13:43.407Z,6.82
2023-04-08T18:16:33.053Z,5.72
2023-04-08T18:19:21.397Z,5.32
2023-04-08T18:22:09.941Z,5.72
2023-04-08T18:24:58.276Z,6.53
2023-04-08T18:27:46.683Z,5.45
2023-04-08T18:30:35.447Z,5.90
2023-04-08T18:33:25.473Z,6.20
2023-04-08T18:36:14.568Z,9.60
2023-04-08T18:39:03.171Z,6.90
2023-04-08T18:41:51.434Z,6.32
2023-04-08T18:44:39.886Z,6.35
2023-04-08T18:47:28.779Z,7.20
2023-04-08T18:50:18.831Z,6.30
2023-04-08T18:53:08.038Z,6.40
2023-04-08T18:55:56.732Z,6.55
2023-04-08T18:58:46.963Z,6.50
2023-04-08T19:01:36.333Z,6.75
2023-04-08T19:04:25.157Z,7.20
2023-04-08T19:07:16.796Z,6.65
2023-04-08T19:10:05.931Z,7.00
2023-04-08T19:12:54.307Z,7.30
2023-04-08T19:15:43.172Z,6.63
2023-04-08T19:18:31.942Z,7.80
2023-04-08T19:21:20.689Z,8.50
2023-04-08T19:24:10.581Z,7.07
2023-04-08T19:26:59.075Z,7.13
2023-04-08T19:29:47.633Z,7.57
2023-04-08T19:32:36.401Z,8.32
2023-04-08T19:35:25.331Z,8.07
2023-04-08T19:38:13.811Z,8.30
2023-04-08T19:41:03.277Z,7.85
2023-04-08T19:43:51.699Z,8.40
2023-04-08T19:46:40.168Z,7.25
2023-04-08T19:49:28.350Z,7.80
2023-04-08T19:52:16.346Z,7.68
2023-04-08T19:55:04.753Z,7.65
2023-04-08T19:57:54.292Z,8.23
2023-04-08T20:00:42.339Z,8.23
2023-04-08T20:03:30.590Z,8.13
2023-04-08T20:06:19.220Z,8.18
2023-04-08T20:09:07.362Z,7.53
2023-04-08T20:11:55.383Z,7.65
2023-04-08T20:14:45.111Z,8.70
2023-04-08T20:17:33.173Z,7.63
2023-04-08T20:20:21.326Z,8.35
2023-04-08T20:23:09.379Z,7.35
2023-04-08T20:25:58.038Z,7.78
2023-04-08T20:28:46.229Z,7.88
2023-04-08T20:31:35.635Z,7.60
2023-04-08T20:34:23.693Z,7.90
2023-04-08T20:37:11.744Z,7.93
2023-04-08T20:39:59.757Z,8.05
2023-04-08T20:42:47.762Z,8.15
2023-04-08T20:45:37.793Z,7.57
2023-04-08T20:48:27.112Z,9.02
2023-04-08T20:51:17.313Z,7.07
2023-04-08T20:54:05.401Z,7.85
2023-04-08T20:56:53.417Z,8.45
2023-04-08T20:59:41.434Z,9.32
2023-04-08T21:02:29.527Z,7.68
2023-04-08T21:05:19.139Z,9.23
2023-04-08T21:08:07.316Z,8.05
2023-04-08T21:10:55.316Z,8.15
2023-04-08T21:13:44.986Z,7.70
2023-04-08T21:16:34.159Z,7.85
2023-04-08T21:19:22.218Z,8.68
2023-04-08T21:22:11.556Z,9.02
2023-04-08T21:24:59.551Z,9.80
2023-04-08T21:27:47.646Z,8.02
2023-04-08T21:30:35.648Z,8.73
2023-04-08T21:33:23.665Z,8.98
2023-04-08T21:36:11.771Z,9.48
2023-04-08T21:39:01.378Z,8.60
2023-04-08T21:41:49.401Z,8.30
2023-04-08T21:44:37.523Z,8.30
2023-04-08T21:47:25.608Z,9.15
2023-04-08T21:50:13.633Z,9.23
2023-04-08T21:53:02.128Z,9.43
2023-04-08T21:55:51.580Z,8.88
2023-04-08T21:58:39.884Z,8.73
2023-04-08T22:01:28.074Z,8.70
2023-04-08T22:04:16.460Z,8.35
2023-04-08T22:07:04.490Z,8.95
2023-04-08T22:09:54.458Z,9.27
2023-04-08T22:12:43.803Z,10.18
2023-04-08T22:15:31.854Z,8.63
2023-04-08T22:18:19.913Z,9.48
2023-04-08T22:21:07.941Z,9.45
2023-04-08T22:23:55.994Z,9.35
2023-04-08T22:26:43.997Z,9.55
2023-04-08T22:29:33.901Z,9.65
2023-04-08T22:32:21.909Z,11.82
2023-04-08T22:35:10.672Z,10.65
2023-04-08T22:37:58.699Z,8.68
2023-04-08T22:40:46.707Z,11.48
2023-04-08T22:43:34.750Z,11.80
2023-04-08T22:46:24.109Z,11.10
2023-04-08T22:49:12.167Z,14.13
2023-04-08T22:52:00.331Z,11.30
2023-04-08T22:54:48.473Z,12.52
2023-04-08T22:57:36.513Z,10.95
2023-04-08T23:00:24.686Z,10.18
2023-04-08T23:03:14.078Z,10.35
2023-04-08T23:06:02.126Z,9.40
2023-04-08T23:08:50.525Z,9.20
2023-04-08T23:11:38.819Z,10.18
2023-04-08T23:14:26.829Z,9.73
2023-04-08T23:17:14.812Z,11.45
2023-04-08T23:20:04.508Z,10.00
2023-04-08T23:22:52.534Z,10.93
2023-04-08T23:25:40.543Z,11.20
2023-04-08T23:28:28.546Z,11.70
2023-04-08T23:31:16.633Z,11.88
2023-04-08T23:34:04.652Z,12.10
2023-04-08T23:36:54.029Z,12.93
2023-04-08T23:39:42.031Z,10.70
2023-04-08T23:42:30.045Z,12.45
2023-04-08T23:45:18.474Z,11.68
2023-04-08T23:48:09.965Z,11.85
2023-04-08T23:50:58.191Z,11.38
2023-04-08T23:53:47.625Z,12.82
2023-04-08T23:56:35.660Z,11.52
2023-04-08T23:59:23.655Z,11.55
